Rejestracja

Wszystkie dane podawane są w czasie UTC za wyjątkiem miejsc gdzie jest jednoznacznie podane, że jest inaczej. Dane podawane w serwisie mają charakter informacyjny!!!
Informacje w sprawie dostępu do serwisu pod numerem tel. +48 261-828-559 lub +48 261-828-138
Informacja dla żołnierzy i pracowników wojska: Prosimy o niezwłoczną zmianę adresu e-mail w profilu użytkownika na pocztę w domenie @ron.mil.pl
Brak służbowego adresu e-mail skutkuje usunięciem konta.

Aktualna Pogoda
 
Pogoda w Polsce
17°C Szczecin 13°C Suwałki 19°C Warszawa 20°C Poznan
21°C Opole 22°C Kraków 15°C Rzeszów
Więcej miast w Polsce

Pogoda w Europie
18°C Berlin 19°C Paryz 17°C Bruksela 11°C Oslo
23°C Praga 21°C Zagrzeb
Więcej miast w Europie

Metary wojskowe test
METAR EPBC 201300Z AUTO 20002KT 170V230 CAVOK 19/11 Q1009=
METAR EPCE 201330Z 22014KT 190V250 9999 FEW216 17/10 Q1000 RMK 170 064 1/1=
METAR EPDA 201330Z 22017G30KT 9999 BKN106 17/11 Q0999 RMK 173 066 5/5=
METAR EPDE 201330Z 20008KT CAVOK 19/11 Q1011 RMK 190 059 7/7=
METAR EPIR 201330Z 20020KT CAVOK 20/10 Q1005 RMK 195 053 7/4=
METAR EPKS 201330Z 23010KT 190V260 9999 SCT072 BKN094 BKN110 21/08 Q1006 RMK 212 044 7/3=
METAR EPLK 201330Z 21008KT 160V250 CAVOK 18/15 Q1009 RMK 183 081 7/2=
METAR EPLY 201400Z 21012KT CAVOK 19/11 Q1008 RMK 187 062 6/4=
METAR EPMB 201330Z 20016G26KT 9999 BKN060 17/17 Q1002 RMK 174 095 5/5=
METAR EPMI 201330Z 20010KT 160V240 9999 BKN100 15/10 Q1003 RMK 152 069 7/7=
METAR EPMM 201330Z 23011KT 180V260 9999 BKN200 18/12 Q1009 RMK 178 071 7/7=
METAR EPNA 201330Z 24008KT 9999 BKN100 16/10 Q1003 RMK 156 070 7/7=
SPECI EPOK 201331Z 22013G23KT 190V260 9999 BKN202 18/11 Q0999 RMK 179 064 6/6=
METAR EPPR 201400Z 21014KT CAVOK 18/11 Q1001 RMK 175 066 6/6=
METAR EPPW 201330Z 22014G24KT CAVOK 21/08 Q1006 RMK 207 045 7/3=
METAR EPSN 201330Z 21015KT 180V240 9999 BKN140 17/09 Q1002 RMK 165 063 5/5=
METAR EPTM 201330Z 17008KT CAVOK 19/11 Q1010 RMK 194 058 7/7=


 

Prawa autorskie©2007 SSH SZ RP. Wszelkie prawa zastrzeżone.